createdAt,value
2023-02-14T00:00:08.562Z,16.93
2023-02-14T00:02:39.197Z,16.80
2023-02-14T00:05:15.352Z,17.10
2023-02-14T00:07:50.587Z,17.47
2023-02-14T00:10:26.612Z,16.50
2023-02-14T00:12:55.297Z,19.50
2023-02-14T00:15:29.620Z,17.70
2023-02-14T00:18:00.942Z,17.83
2023-02-14T00:20:36.338Z,20.23
2023-02-14T00:23:05.176Z,19.50
2023-02-14T00:25:42.637Z,18.13
2023-02-14T00:28:11.278Z,17.50
2023-02-14T00:30:46.333Z,22.70
2023-02-14T00:33:22.314Z,20.43
2023-02-14T00:35:50.954Z,19.90
2023-02-14T00:38:26.361Z,18.47
2023-02-14T00:40:55.088Z,19.80
2023-02-14T00:43:30.310Z,20.77
2023-02-14T00:45:58.929Z,19.73
2023-02-14T00:48:35.662Z,18.13
2023-02-14T00:51:11.493Z,20.43
2023-02-14T00:53:40.457Z,19.20
2023-02-14T00:56:16.339Z,20.47
2023-02-14T00:58:45.249Z,19.10
2023-02-14T01:01:21.664Z,18.40
2023-02-14T01:03:52.011Z,19.10
2023-02-14T01:06:33.681Z,18.57
2023-02-14T01:09:02.788Z,17.80
2023-02-14T01:11:37.298Z,17.80
2023-02-14T01:14:05.942Z,18.50
2023-02-14T01:16:41.709Z,17.73
2023-02-14T01:19:11.965Z,16.70
2023-02-14T01:21:47.404Z,16.57
2023-02-14T01:24:16.749Z,19.43
2023-02-14T01:26:52.365Z,18.53
2023-02-14T01:29:20.955Z,20.00
2023-02-14T01:31:56.716Z,17.53
2023-02-14T01:34:26.888Z,19.33
2023-02-14T01:37:02.680Z,16.07
2023-02-14T01:39:32.729Z,16.07
2023-02-14T01:42:07.674Z,16.70
2023-02-14T01:45:03.691Z,18.47
2023-02-14T01:47:42.476Z,18.23
2023-02-14T01:50:16.684Z,18.47
2023-02-14T01:52:55.443Z,16.33
2023-02-14T01:55:26.608Z,16.23
2023-02-14T01:58:04.365Z,18.03
2023-02-14T02:00:50.055Z,15.83
2023-02-14T02:03:27.400Z,18.13
2023-02-14T02:06:22.493Z,18.03
2023-02-14T02:09:07.832Z,18.07
2023-02-14T02:11:38.195Z,19.30
2023-02-14T02:14:13.743Z,17.30
2023-02-14T02:17:20.745Z,16.93
2023-02-14T02:20:38.239Z,17.47
2023-02-14T02:23:53.718Z,17.70
2023-02-14T02:26:58.397Z,17.53
2023-02-14T02:30:15.522Z,15.73
2023-02-14T02:33:33.424Z,18.60
2023-02-14T02:36:33.378Z,17.13
2023-02-14T02:39:27.548Z,17.13
2023-02-14T02:42:07.523Z,17.97
2023-02-14T02:44:53.749Z,20.70
2023-02-14T02:47:29.428Z,17.90
2023-02-14T02:50:29.788Z,17.70
2023-02-14T02:53:08.521Z,18.50
2023-02-14T02:56:08.464Z,19.40
2023-02-14T02:58:42.435Z,19.03
2023-02-14T03:01:22.883Z,18.80
2023-02-14T03:04:14.235Z,18.13
2023-02-14T03:06:56.709Z,18.63
2023-02-14T03:09:54.824Z,19.13
2023-02-14T03:12:57.779Z,17.17
2023-02-14T03:15:47.895Z,18.87
2023-02-14T03:18:48.049Z,21.10
2023-02-14T03:21:36.484Z,17.47
2023-02-14T03:24:13.549Z,18.37
2023-02-14T03:26:56.537Z,15.80
2023-02-14T03:29:33.215Z,17.90
2023-02-14T03:32:16.607Z,16.63
2023-02-14T03:34:54.544Z,17.53
2023-02-14T03:37:35.522Z,17.53
2023-02-14T03:40:11.452Z,16.30
2023-02-14T03:42:53.485Z,17.47
2023-02-14T03:45:28.937Z,17.43
2023-02-14T03:48:08.502Z,18.83
2023-02-14T03:50:40.170Z,17.27
2023-02-14T03:53:17.492Z,16.93
2023-02-14T03:55:50.710Z,17.37
2023-02-14T03:58:32.519Z,16.97
2023-02-14T04:01:05.884Z,17.07
2023-02-14T04:03:44.574Z,19.03
2023-02-14T04:06:20.044Z,18.93
2023-02-14T04:08:55.587Z,19.90
2023-02-14T04:11:24.833Z,18.70
2023-02-14T04:14:01.556Z,18.23
2023-02-14T04:16:30.159Z,17.50
2023-02-14T04:19:22.557Z,20.20
2023-02-14T04:21:51.932Z,17.57
2023-02-14T04:24:27.585Z,18.10
2023-02-14T04:27:10.539Z,18.40
2023-02-14T04:29:48.553Z,17.80
2023-02-14T04:32:20.399Z,21.47
2023-02-14T04:34:55.585Z,17.00
2023-02-14T04:37:24.501Z,17.13
2023-02-14T04:39:59.831Z,18.07
2023-02-14T04:42:28.630Z,18.97
2023-02-14T04:45:07.762Z,19.27
2023-02-14T04:47:36.527Z,16.40
2023-02-14T04:50:12.668Z,16.73
2023-02-14T04:52:48.556Z,18.20
2023-02-14T04:55:17.238Z,17.50
2023-02-14T04:57:52.615Z,19.37
2023-02-14T05:00:24.297Z,19.43
2023-02-14T05:02:59.503Z,18.17
2023-02-14T05:05:35.462Z,19.90
2023-02-14T05:08:10.899Z,16.73
2023-02-14T05:10:39.373Z,18.10
2023-02-14T05:13:14.535Z,17.03
2023-02-14T05:15:46.490Z,17.37
2023-02-14T05:18:21.908Z,17.63
2023-02-14T05:20:51.090Z,21.17
2023-02-14T05:23:26.588Z,17.43
2023-02-14T05:25:55.301Z,19.30
2023-02-14T05:28:30.861Z,19.30
2023-02-14T05:31:01.227Z,20.17
2023-02-14T05:33:36.866Z,18.73
2023-02-14T05:36:06.251Z,18.67
2023-02-14T05:38:41.659Z,20.33
2023-02-14T05:41:10.319Z,18.73
2023-02-14T05:43:45.968Z,17.77
2023-02-14T05:46:16.410Z,18.50
2023-02-14T05:48:52.598Z,20.97
2023-02-14T05:51:21.182Z,20.00
2023-02-14T05:53:56.655Z,19.53
2023-02-14T05:56:25.478Z,18.67
2023-02-14T05:59:00.609Z,18.40
2023-02-14T06:01:30.689Z,19.57
2023-02-14T06:04:05.625Z,20.97
2023-02-14T06:06:41.157Z,18.87
2023-02-14T06:09:16.890Z,21.03
2023-02-14T06:11:45.313Z,22.67
2023-02-14T06:14:20.605Z,21.83
2023-02-14T06:16:50.746Z,19.70
2023-02-14T06:19:26.071Z,19.77
2023-02-14T06:21:54.887Z,20.00
2023-02-14T06:24:29.942Z,22.87
2023-02-14T06:26:59.909Z,21.23
2023-02-14T06:29:35.648Z,19.83
2023-02-14T06:32:06.863Z,22.23
2023-02-14T06:34:41.696Z,20.27
2023-02-14T06:37:10.257Z,21.17
2023-02-14T06:39:45.735Z,20.60
2023-02-14T06:42:14.250Z,20.40
2023-02-14T06:44:49.700Z,20.67
2023-02-14T06:47:19.967Z,22.20
2023-02-14T06:49:54.679Z,20.03
2023-02-14T06:52:23.850Z,22.53
2023-02-14T06:54:58.991Z,21.53
2023-02-14T06:57:27.567Z,19.63
2023-02-14T07:00:02.693Z,19.63
2023-02-14T07:02:32.819Z,21.33
2023-02-14T07:05:07.933Z,20.20
2023-02-14T07:07:42.884Z,22.27
2023-02-14T07:10:18.755Z,21.40
2023-02-14T07:12:47.270Z,21.63
2023-02-14T07:15:22.751Z,21.80
2023-02-14T07:17:53.315Z,20.30
2023-02-14T07:20:28.770Z,20.27
2023-02-14T07:22:57.604Z,19.50
2023-02-14T07:25:34.756Z,19.43
2023-02-14T07:28:04.905Z,21.27
2023-02-14T07:30:39.925Z,20.03
2023-02-14T07:33:10.321Z,21.40
2023-02-14T07:35:48.440Z,22.63
2023-02-14T07:38:17.241Z,20.47
2023-02-14T07:40:53.965Z,19.83
2023-02-14T07:43:28.929Z,18.43
2023-02-14T07:45:58.557Z,19.60
2023-02-14T07:48:35.777Z,20.97
2023-02-14T07:51:04.758Z,19.33
2023-02-14T07:53:39.773Z,21.13
2023-02-14T07:56:09.030Z,20.97
2023-02-14T07:58:43.819Z,21.20
2023-02-14T08:01:12.702Z,20.63
2023-02-14T08:03:52.012Z,20.27
2023-02-14T08:06:28.592Z,19.57
2023-02-14T08:09:11.008Z,20.83
2023-02-14T08:11:56.774Z,19.13
2023-02-14T08:14:35.043Z,22.33
2023-02-14T08:17:03.742Z,20.93
2023-02-14T08:19:40.805Z,20.63
2023-02-14T08:22:10.961Z,21.07
2023-02-14T08:24:46.010Z,19.53
2023-02-14T08:27:17.058Z,20.30
2023-02-14T08:29:51.722Z,20.60
2023-02-14T08:32:21.153Z,20.17
2023-02-14T08:34:58.018Z,19.43
2023-02-14T08:37:26.806Z,19.83
2023-02-14T08:40:01.970Z,20.40
2023-02-14T08:42:31.198Z,20.03
2023-02-14T08:45:06.105Z,20.23
2023-02-14T08:47:35.948Z,20.90
2023-02-14T08:50:14.097Z,20.73
2023-02-14T08:52:45.017Z,19.40
2023-02-14T08:55:21.710Z,21.77
2023-02-14T08:57:50.664Z,21.83
2023-02-14T09:00:27.198Z,21.63
2023-02-14T09:02:56.002Z,19.80
2023-02-14T09:05:32.859Z,21.47
2023-02-14T09:08:09.686Z,24.67
2023-02-14T09:10:45.092Z,23.70
2023-02-14T09:13:13.610Z,21.20
2023-02-14T09:15:50.115Z,20.40
2023-02-14T09:18:18.689Z,21.73
2023-02-14T09:20:56.085Z,21.50
2023-02-14T09:23:24.638Z,20.97
2023-02-14T09:25:59.836Z,19.73
2023-02-14T09:28:28.574Z,20.13
2023-02-14T09:31:04.920Z,19.73
2023-02-14T09:33:33.680Z,19.00
2023-02-14T09:36:27.738Z,20.80
2023-02-14T09:38:56.289Z,19.73
2023-02-14T09:42:05.102Z,21.07
2023-02-14T09:44:44.912Z,21.57
2023-02-14T09:47:21.026Z,19.43
2023-02-14T09:49:56.856Z,19.27
2023-02-14T09:52:31.155Z,21.27
2023-02-14T09:55:08.991Z,19.53
2023-02-14T09:57:45.254Z,19.23
2023-02-14T10:00:28.886Z,21.70
2023-02-14T10:03:04.313Z,20.27
2023-02-14T10:05:43.804Z,21.83
2023-02-14T10:08:36.843Z,19.97
2023-02-14T10:11:16.212Z,21.13
2023-02-14T10:13:48.716Z,20.03
2023-02-14T10:16:30.946Z,19.80
2023-02-14T10:19:04.149Z,18.63
2023-02-14T10:21:42.857Z,21.17
2023-02-14T10:24:19.480Z,21.90
2023-02-14T10:26:58.085Z,20.77
2023-02-14T10:29:26.841Z,20.03
2023-02-14T10:32:07.157Z,20.17
2023-02-14T10:34:40.981Z,20.27
2023-02-14T10:37:49.844Z,18.43
2023-02-14T10:40:48.653Z,19.93
2023-02-14T10:43:31.896Z,21.27
2023-02-14T10:46:08.517Z,17.80
2023-02-14T10:48:55.187Z,20.87
2023-02-14T10:51:33.506Z,18.43
2023-02-14T10:54:23.873Z,19.00
2023-02-14T10:57:06.953Z,19.83
2023-02-14T10:59:48.842Z,17.70
2023-02-14T11:02:26.176Z,22.17
2023-02-14T11:04:55.663Z,19.53
2023-02-14T11:07:38.866Z,17.23
2023-02-14T11:10:16.514Z,19.87
2023-02-14T11:12:52.920Z,17.40
2023-02-14T11:15:26.072Z,19.10
2023-02-14T11:18:18.130Z,20.13
2023-02-14T11:21:01.509Z,18.80
2023-02-14T11:23:41.908Z,21.13
2023-02-14T11:26:22.102Z,21.00
2023-02-14T11:29:02.989Z,18.40
2023-02-14T11:31:34.319Z,16.73
2023-02-14T11:34:10.930Z,20.67
2023-02-14T11:36:43.632Z,17.43
2023-02-14T11:39:36.019Z,22.30
2023-02-14T11:42:06.638Z,18.63
2023-02-14T11:44:50.926Z,18.13
2023-02-14T11:47:26.212Z,16.77
2023-02-14T11:50:07.949Z,22.67
2023-02-14T11:52:48.134Z,17.57
2023-02-14T11:55:34.995Z,18.67
2023-02-14T11:58:06.463Z,18.73
2023-02-14T12:00:42.999Z,21.70
2023-02-14T12:03:21.145Z,17.87
2023-02-14T12:06:02.742Z,20.63
2023-02-14T12:08:51.241Z,20.13
2023-02-14T12:11:28.921Z,19.53
2023-02-14T12:13:59.088Z,18.40
2023-02-14T12:16:40.968Z,20.10
2023-02-14T12:19:18.827Z,18.33
2023-02-14T12:22:00.357Z,18.37
2023-02-14T12:24:33.556Z,17.47
2023-02-14T12:27:23.022Z,17.57
2023-02-14T12:30:02.981Z,18.93
2023-02-14T12:32:34.362Z,17.33
2023-02-14T12:35:14.023Z,17.10
2023-02-14T12:38:02.703Z,17.63
2023-02-14T12:40:55.010Z,21.40
2023-02-14T12:44:02.226Z,18.07
2023-02-14T12:46:52.250Z,21.17
2023-02-14T12:49:39.973Z,18.90
2023-02-14T12:52:30.042Z,18.97
2023-02-14T12:55:19.611Z,17.67
2023-02-14T12:58:02.009Z,19.13
2023-02-14T13:00:41.505Z,18.60
2023-02-14T13:03:52.050Z,17.47
2023-02-14T13:06:45.004Z,20.70
2023-02-14T13:09:25.278Z,17.00
2023-02-14T13:12:10.000Z,18.60
2023-02-14T13:14:59.202Z,17.03
2023-02-14T13:17:42.016Z,18.73
2023-02-14T13:20:39.043Z,17.40
2023-02-14T13:23:26.089Z,16.57
2023-02-14T13:26:03.364Z,19.27
2023-02-14T13:28:42.142Z,16.93
2023-02-14T13:31:15.252Z,18.47
2023-02-14T13:33:56.019Z,17.10
2023-02-14T13:36:24.860Z,19.37
2023-02-14T13:39:04.383Z,17.30
2023-02-14T13:41:34.503Z,17.27
2023-02-14T13:44:12.071Z,18.67
2023-02-14T13:46:50.147Z,19.17
2023-02-14T13:49:38.022Z,17.50
2023-02-14T13:52:08.299Z,17.67
2023-02-14T13:54:53.189Z,15.93
2023-02-14T13:57:34.131Z,17.87
2023-02-14T14:00:43.086Z,21.20
2023-02-14T14:03:16.680Z,19.77
2023-02-14T14:06:09.110Z,17.97
2023-02-14T14:08:53.354Z,17.83
2023-02-14T14:12:09.434Z,16.97
2023-02-14T14:14:47.087Z,19.17
2023-02-14T14:17:27.843Z,18.30
2023-02-14T14:20:04.044Z,19.07
2023-02-14T14:22:33.147Z,21.03
2023-02-14T14:25:13.002Z,19.20
2023-02-14T14:27:46.245Z,18.93
2023-02-14T14:30:38.086Z,17.63
2023-02-14T14:33:17.200Z,20.57
2023-02-14T14:36:01.395Z,19.70
2023-02-14T14:38:31.828Z,21.07
2023-02-14T14:41:08.395Z,21.17
2023-02-14T14:43:40.039Z,19.80
2023-02-14T14:46:20.107Z,19.83
2023-02-14T14:48:50.872Z,20.40
2023-02-14T14:51:31.158Z,20.80
2023-02-14T14:54:03.740Z,19.27
2023-02-14T14:56:42.096Z,19.47
2023-02-14T14:59:29.499Z,21.23
2023-02-14T15:02:06.141Z,18.77
2023-02-14T15:04:36.554Z,20.53
2023-02-14T15:07:27.058Z,20.27
2023-02-14T15:09:55.640Z,20.23
2023-02-14T15:13:04.395Z,19.30
2023-02-14T15:15:32.967Z,23.07
2023-02-14T15:18:14.512Z,20.73
2023-02-14T15:20:44.336Z,21.60
2023-02-14T15:23:27.475Z,19.60
2023-02-14T15:25:56.000Z,26.13
2023-02-14T15:28:39.171Z,18.67
2023-02-14T15:31:08.620Z,18.53
2023-02-14T15:33:46.197Z,19.17
2023-02-14T15:36:21.553Z,19.80
2023-02-14T15:38:57.462Z,19.73
2023-02-14T15:41:27.028Z,20.53
2023-02-14T15:44:04.461Z,19.87
2023-02-14T15:46:36.056Z,19.87
2023-02-14T15:49:18.495Z,19.80
2023-02-14T15:51:56.154Z,21.47
2023-02-14T15:54:33.704Z,21.03
2023-02-14T15:57:09.180Z,18.77
2023-02-14T15:59:43.111Z,21.10
2023-02-14T16:02:34.167Z,19.37
2023-02-14T16:05:10.723Z,21.80
2023-02-14T16:07:52.197Z,19.60
2023-02-14T16:10:25.182Z,22.17
2023-02-14T16:13:07.420Z,18.80
2023-02-14T16:15:37.391Z,21.27
2023-02-14T16:18:26.477Z,17.67
2023-02-14T16:20:56.969Z,18.33
2023-02-14T16:23:37.075Z,18.43
2023-02-14T16:26:09.165Z,19.47
2023-02-14T16:28:45.255Z,17.30
2023-02-14T16:31:17.283Z,20.50
2023-02-14T16:33:52.494Z,19.00
2023-02-14T16:36:27.964Z,20.60
2023-02-14T16:39:03.209Z,19.90
2023-02-14T16:41:33.339Z,19.87
2023-02-14T16:44:08.166Z,20.37
2023-02-14T16:46:37.857Z,18.80
2023-02-14T16:49:13.167Z,18.93
2023-02-14T16:51:47.071Z,19.07
2023-02-14T16:54:26.249Z,21.10
2023-02-14T16:56:57.165Z,18.53
2023-02-14T16:59:32.528Z,20.03
2023-02-14T17:02:02.311Z,18.70
2023-02-14T17:04:37.465Z,19.73
2023-02-14T17:07:29.236Z,21.47
2023-02-14T17:10:08.376Z,20.43
2023-02-14T17:12:42.321Z,25.37
2023-02-14T17:15:21.218Z,22.07
2023-02-14T17:17:51.979Z,23.03
2023-02-14T17:20:28.553Z,20.30
2023-02-14T17:22:59.852Z,22.50
2023-02-14T17:25:35.536Z,23.48
2023-02-14T17:28:04.046Z,20.53
2023-02-14T17:30:39.544Z,21.20
2023-02-14T17:33:08.624Z,22.67
2023-02-14T17:35:44.450Z,22.17
2023-02-14T17:38:14.984Z,21.40
2023-02-14T17:40:50.242Z,23.13
2023-02-14T17:43:19.138Z,20.57
2023-02-14T17:45:54.261Z,20.37
2023-02-14T17:48:23.158Z,20.47
2023-02-14T17:50:59.833Z,22.53
2023-02-14T17:53:30.325Z,20.47
2023-02-14T17:56:06.611Z,21.33
2023-02-14T17:58:34.858Z,21.77
2023-02-14T18:01:11.276Z,21.00
2023-02-14T18:03:41.063Z,20.87
2023-02-14T18:06:16.458Z,21.43
2023-02-14T18:09:06.728Z,22.20
2023-02-14T18:11:35.282Z,22.03
2023-02-14T18:14:11.574Z,21.63
2023-02-14T18:16:41.164Z,23.47
2023-02-14T18:19:16.270Z,18.73
2023-02-14T18:21:46.515Z,20.57
2023-02-14T18:24:23.237Z,22.43
2023-02-14T18:26:51.932Z,23.43
2023-02-14T18:29:27.268Z,24.90
2023-02-14T18:31:55.845Z,24.70
2023-02-14T18:34:31.593Z,22.70
2023-02-14T18:37:02.920Z,23.47
2023-02-14T18:39:39.591Z,27.60
2023-02-14T18:42:08.368Z,22.77
2023-02-14T18:44:46.258Z,22.87
2023-02-14T18:47:15.468Z,23.57
2023-02-14T18:49:50.583Z,24.07
2023-02-14T18:52:19.356Z,25.43
2023-02-14T18:54:57.299Z,24.50
2023-02-14T18:57:26.447Z,22.67
2023-02-14T19:00:01.715Z,24.40
2023-02-14T19:02:31.511Z,24.00
2023-02-14T19:05:07.290Z,25.77
2023-02-14T19:07:55.329Z,23.97
2023-02-14T19:10:32.350Z,26.10
2023-02-14T19:13:01.292Z,27.73
2023-02-14T19:15:36.332Z,24.80
2023-02-14T19:18:06.088Z,26.80
2023-02-14T19:20:41.661Z,26.30
2023-02-14T19:23:10.597Z,25.80
2023-02-14T19:25:47.438Z,24.67
2023-02-14T19:28:16.302Z,24.87
2023-02-14T19:30:51.674Z,26.70
2023-02-14T19:33:20.431Z,25.37
2023-02-14T19:35:56.439Z,24.97
2023-02-14T19:38:25.044Z,22.83
2023-02-14T19:41:03.703Z,21.27
2023-02-14T19:43:32.558Z,23.00
2023-02-14T19:46:07.439Z,24.97
2023-02-14T19:48:35.997Z,25.00
2023-02-14T19:51:11.436Z,24.70
2023-02-14T19:53:39.857Z,23.67
2023-02-14T19:56:16.454Z,26.17
2023-02-14T19:58:45.065Z,23.63
2023-02-14T20:01:30.687Z,21.80
2023-02-14T20:03:59.921Z,24.83
2023-02-14T20:06:35.444Z,25.17
2023-02-14T20:09:33.271Z,24.57
2023-02-14T20:12:10.752Z,28.67
2023-02-14T20:14:50.864Z,25.03
2023-02-14T20:17:27.451Z,26.67
2023-02-14T20:19:56.249Z,28.47
2023-02-14T20:22:32.455Z,25.07
2023-02-14T20:25:01.352Z,23.97
2023-02-14T20:27:38.459Z,25.60
2023-02-14T20:30:09.374Z,27.07
2023-02-14T20:32:44.429Z,25.70
2023-02-14T20:35:13.505Z,26.67
2023-02-14T20:37:48.654Z,26.53
2023-02-14T20:40:19.873Z,27.10
2023-02-14T20:42:58.742Z,28.67
2023-02-14T20:45:27.265Z,27.20
2023-02-14T20:48:02.483Z,29.60
2023-02-14T20:50:31.701Z,26.03
2023-02-14T20:53:06.474Z,26.93
2023-02-14T20:55:35.070Z,26.30
2023-02-14T20:58:11.422Z,27.07
2023-02-14T21:00:40.260Z,27.77
2023-02-14T21:03:15.772Z,28.37
2023-02-14T21:05:52.751Z,28.27
2023-02-14T21:08:28.078Z,26.10
2023-02-14T21:11:02.699Z,28.90
2023-02-14T21:13:32.946Z,27.13
2023-02-14T21:16:10.913Z,28.20
2023-02-14T21:18:40.108Z,27.50
2023-02-14T21:21:17.443Z,32.67
2023-02-14T21:23:45.957Z,26.77
2023-02-14T21:26:21.457Z,29.57
2023-02-14T21:28:51.530Z,29.03
2023-02-14T21:31:32.098Z,30.50
2023-02-14T21:34:02.775Z,31.40
2023-02-14T21:36:39.422Z,29.83
2023-02-14T21:39:09.128Z,30.63
2023-02-14T21:41:44.489Z,28.87
2023-02-14T21:44:34.567Z,27.70
2023-02-14T21:47:09.549Z,29.23
2023-02-14T21:49:55.239Z,31.40
2023-02-14T21:52:30.513Z,33.53
2023-02-14T21:55:05.499Z,26.77
2023-02-14T21:57:34.106Z,30.63
2023-02-14T22:00:10.547Z,28.27
2023-02-14T22:02:39.363Z,32.87
2023-02-14T22:05:14.740Z,28.30
2023-02-14T22:07:51.014Z,32.30
2023-02-14T22:10:32.763Z,29.90
2023-02-14T22:13:00.987Z,34.20
2023-02-14T22:15:39.246Z,32.67
2023-02-14T22:18:07.820Z,31.83
2023-02-14T22:20:43.478Z,31.20
2023-02-14T22:23:12.011Z,30.17
2023-02-14T22:25:47.495Z,33.63
2023-02-14T22:28:15.925Z,31.23
2023-02-14T22:30:52.569Z,28.80
2023-02-14T22:33:21.392Z,35.83
2023-02-14T22:35:56.589Z,33.30
2023-02-14T22:38:25.473Z,32.47
2023-02-14T22:41:01.036Z,33.47
2023-02-14T22:43:30.285Z,33.70
2023-02-14T22:46:10.592Z,31.33
2023-02-14T22:48:39.956Z,32.87
2023-02-14T22:51:16.603Z,34.03
2023-02-14T22:53:45.156Z,32.97
2023-02-14T22:56:22.512Z,35.77
2023-02-14T22:58:55.315Z,32.13
2023-02-14T23:01:32.858Z,32.47
2023-02-14T23:04:03.562Z,32.40
2023-02-14T23:06:40.499Z,33.33
2023-02-14T23:09:18.106Z,32.83
2023-02-14T23:12:02.000Z,33.20
2023-02-14T23:14:54.593Z,30.63
2023-02-14T23:17:41.802Z,32.53
2023-02-14T23:20:34.689Z,33.87
2023-02-14T23:23:03.435Z,31.90
2023-02-14T23:25:38.870Z,34.00
2023-02-14T23:28:07.531Z,33.90
2023-02-14T23:30:42.577Z,39.03
2023-02-14T23:33:12.625Z,33.57
2023-02-14T23:35:47.881Z,35.63
2023-02-14T23:38:16.456Z,35.27
2023-02-14T23:41:08.660Z,38.33
2023-02-14T23:43:36.930Z,36.73
2023-02-14T23:46:11.880Z,34.63
2023-02-14T23:48:41.866Z,34.70
2023-02-14T23:51:17.006Z,33.97
2023-02-14T23:53:45.779Z,36.97
2023-02-14T23:56:20.554Z,36.30
2023-02-14T23:58:49.138Z,36.37
